createdAt,value
2023-05-02T00:00:20.806Z,0.00
2023-05-02T00:01:15.831Z,0.00
2023-05-02T00:02:10.906Z,0.00
2023-05-02T00:03:07.657Z,0.00
2023-05-02T00:04:02.694Z,0.00
2023-05-02T00:04:57.933Z,0.00
2023-05-02T00:05:52.972Z,0.00
2023-05-02T00:06:48.490Z,0.00
2023-05-02T00:07:43.670Z,0.00
2023-05-02T00:08:38.838Z,0.00
2023-05-02T00:09:34.011Z,0.00
2023-05-02T00:10:29.361Z,0.00
2023-05-02T00:11:24.283Z,0.00
2023-05-02T00:12:19.409Z,0.00
2023-05-02T00:13:14.624Z,0.00
2023-05-02T00:14:09.750Z,0.00
2023-05-02T00:15:05.111Z,0.00
2023-05-02T00:16:00.020Z,0.00
2023-05-02T00:16:55.117Z,0.00
2023-05-02T00:17:50.041Z,0.00
2023-05-02T00:18:47.955Z,0.00
2023-05-02T00:19:43.108Z,0.00
2023-05-02T00:20:38.266Z,0.00
2023-05-02T00:21:33.437Z,0.00
2023-05-02T00:22:28.657Z,0.00
2023-05-02T00:23:24.500Z,0.00
2023-05-02T00:24:19.682Z,0.00
2023-05-02T00:25:15.002Z,0.00
2023-05-02T00:26:10.647Z,0.00
2023-05-02T00:27:05.814Z,0.00
2023-05-02T00:28:01.842Z,0.00
2023-05-02T00:28:56.885Z,0.00
2023-05-02T00:29:52.241Z,0.00
2023-05-02T00:30:48.037Z,0.00
2023-05-02T00:31:43.308Z,0.00
2023-05-02T00:32:38.582Z,0.00
2023-05-02T00:33:34.855Z,0.00
2023-05-02T00:34:30.068Z,0.00
2023-05-02T00:35:25.844Z,0.00
2023-05-02T00:36:20.993Z,0.00
2023-05-02T00:37:16.339Z,0.00
2023-05-02T00:38:11.950Z,0.00
2023-05-02T00:39:07.232Z,0.00
2023-05-02T00:40:03.090Z,0.00
2023-05-02T00:40:58.181Z,0.00
2023-05-02T00:41:53.482Z,0.00
2023-05-02T00:42:49.278Z,0.00
2023-05-02T00:43:44.444Z,0.00
2023-05-02T00:44:39.824Z,0.00
2023-05-02T00:45:35.792Z,0.00
2023-05-02T00:46:31.054Z,0.00
2023-05-02T00:47:26.905Z,0.00
2023-05-02T00:48:22.072Z,0.00
2023-05-02T00:49:17.154Z,0.00
2023-05-02T00:50:13.222Z,0.00
2023-05-02T00:51:08.140Z,0.00
2023-05-02T00:52:04.032Z,0.00
2023-05-02T00:52:59.181Z,0.00
2023-05-02T00:53:54.398Z,0.00
2023-05-02T00:54:50.139Z,0.00
2023-05-02T00:55:45.377Z,0.00
2023-05-02T00:56:40.512Z,0.00
2023-05-02T00:57:36.832Z,0.00
2023-05-02T00:58:31.982Z,0.00
2023-05-02T00:59:27.893Z,0.00
2023-05-02T01:00:22.928Z,0.00
2023-05-02T01:01:18.153Z,0.00
2023-05-02T01:02:13.917Z,0.00
2023-05-02T01:03:09.119Z,0.00
2023-05-02T01:04:05.139Z,0.00
2023-05-02T01:05:00.238Z,0.00
2023-05-02T01:05:55.280Z,0.00
2023-05-02T01:06:51.385Z,0.00
2023-05-02T01:07:46.459Z,0.00
2023-05-02T01:08:41.824Z,0.00
2023-05-02T01:09:38.007Z,0.00
2023-05-02T01:10:33.100Z,0.00
2023-05-02T01:11:28.835Z,0.00
2023-05-02T01:12:23.998Z,0.00
2023-05-02T01:13:19.284Z,0.00
2023-05-02T01:14:15.245Z,0.00
2023-05-02T01:15:10.296Z,0.00
2023-05-02T01:16:06.278Z,0.00
2023-05-02T01:17:01.282Z,0.00
2023-05-02T01:17:56.827Z,0.00
2023-05-02T01:18:52.313Z,0.00
2023-05-02T01:19:47.549Z,0.00
2023-05-02T01:20:42.580Z,0.00
2023-05-02T01:21:39.027Z,0.00
2023-05-02T01:22:34.226Z,0.00
2023-05-02T01:23:29.402Z,0.00
2023-05-02T01:24:24.435Z,0.00
2023-05-02T01:25:19.694Z,0.00
2023-05-02T01:26:14.666Z,0.00
2023-05-02T01:27:09.764Z,0.00
2023-05-02T01:28:04.872Z,0.00
2023-05-02T01:28:59.961Z,0.00
2023-05-02T01:29:55.015Z,0.00
2023-05-02T01:30:50.074Z,0.00
2023-05-02T01:31:45.310Z,0.00
2023-05-02T01:32:40.513Z,0.00
2023-05-02T01:33:35.748Z,0.00
2023-05-02T01:34:31.022Z,0.00
2023-05-02T01:35:25.919Z,0.00
2023-05-02T01:36:21.050Z,0.00
2023-05-02T01:37:18.278Z,0.00
2023-05-02T01:38:13.302Z,0.00
2023-05-02T01:39:08.347Z,0.00
2023-05-02T01:40:03.563Z,0.00
2023-05-02T01:40:58.472Z,0.00
2023-05-02T01:41:53.553Z,0.00
2023-05-02T01:42:48.594Z,0.00
2023-05-02T01:43:43.643Z,0.00
2023-05-02T01:44:38.719Z,0.00
2023-05-02T01:45:33.757Z,0.00
2023-05-02T01:46:28.806Z,0.00
2023-05-02T01:47:23.892Z,0.00
2023-05-02T01:48:18.894Z,0.00
2023-05-02T01:49:14.096Z,0.00
2023-05-02T01:50:09.141Z,0.00
2023-05-02T01:51:04.173Z,0.00
2023-05-02T01:51:59.241Z,0.00
2023-05-02T01:52:54.325Z,0.00
2023-05-02T01:53:49.575Z,0.00
2023-05-02T01:54:50.174Z,0.00
2023-05-02T01:55:45.204Z,0.00
2023-05-02T01:56:40.504Z,0.00
2023-05-02T01:57:36.405Z,0.00
2023-05-02T01:58:31.613Z,0.00
2023-05-02T01:59:26.945Z,0.00
2023-05-02T02:00:22.955Z,0.00
2023-05-02T02:01:18.211Z,0.00
2023-05-02T02:02:13.956Z,0.00
2023-05-02T02:03:09.146Z,0.00
2023-05-02T02:04:04.478Z,0.00
2023-05-02T02:05:00.124Z,0.00
2023-05-02T02:05:55.280Z,0.00
2023-05-02T02:06:51.288Z,0.00
2023-05-02T02:07:46.391Z,0.00
2023-05-02T02:08:41.738Z,0.00
2023-05-02T02:09:37.390Z,0.00
2023-05-02T02:10:32.585Z,0.00
2023-05-02T02:11:27.758Z,0.00
2023-05-02T02:12:24.177Z,0.00
2023-05-02T02:13:19.372Z,0.00
2023-05-02T02:14:15.437Z,0.00
2023-05-02T02:15:10.495Z,0.00
2023-05-02T02:16:05.839Z,0.00
2023-05-02T02:17:01.673Z,0.00
2023-05-02T02:17:56.819Z,0.00
2023-05-02T02:18:52.528Z,0.00
2023-05-02T02:19:47.870Z,0.00
2023-05-02T02:20:42.918Z,0.00
2023-05-02T02:21:38.805Z,0.00
2023-05-02T02:22:33.991Z,0.00
2023-05-02T02:23:29.297Z,0.00
2023-05-02T02:24:25.609Z,0.00
2023-05-02T02:25:20.796Z,0.00
2023-05-02T02:26:16.518Z,0.00
2023-05-02T02:27:11.708Z,0.00
2023-05-02T02:28:06.901Z,0.00
2023-05-02T02:29:02.821Z,0.00
2023-05-02T02:29:58.218Z,0.00
2023-05-02T02:30:53.948Z,0.00
2023-05-02T02:31:48.963Z,0.00
2023-05-02T02:32:44.383Z,0.00
2023-05-02T02:33:40.121Z,0.00
2023-05-02T02:34:35.334Z,0.00
2023-05-02T02:35:30.622Z,0.00
2023-05-02T02:36:26.918Z,0.00
2023-05-02T02:37:22.103Z,0.00
2023-05-02T02:38:18.030Z,0.00
2023-05-02T02:39:13.165Z,0.00
2023-05-02T02:40:08.514Z,0.00
2023-05-02T02:41:04.120Z,0.00
2023-05-02T02:41:59.340Z,0.00
2023-05-02T02:42:55.077Z,0.00
2023-05-02T02:43:50.409Z,0.00
2023-05-02T02:44:45.580Z,0.00
2023-05-02T02:45:41.341Z,0.00
2023-05-02T02:46:36.549Z,0.00
2023-05-02T02:47:31.776Z,0.00
2023-05-02T02:48:27.862Z,0.00
2023-05-02T02:49:23.156Z,0.00
2023-05-02T02:50:18.870Z,0.00
2023-05-02T02:51:14.028Z,0.00
2023-05-02T02:52:09.213Z,0.00
2023-05-02T02:53:04.389Z,0.00
2023-05-02T02:53:59.861Z,0.00
2023-05-02T02:54:55.501Z,0.00
2023-05-02T02:55:50.569Z,0.00
2023-05-02T02:56:45.733Z,0.00
2023-05-02T02:57:41.878Z,0.00
2023-05-02T02:58:37.095Z,0.00
2023-05-02T02:59:32.842Z,0.00
2023-05-02T03:00:28.014Z,0.00
2023-05-02T03:01:23.087Z,0.00
2023-05-02T03:02:18.956Z,0.00
2023-05-02T03:03:14.314Z,0.00
2023-05-02T03:04:09.963Z,0.00
2023-05-02T03:05:05.127Z,0.00
2023-05-02T03:06:00.407Z,0.00
2023-05-02T03:06:56.199Z,0.00
2023-05-02T03:07:51.367Z,0.00
2023-05-02T03:08:46.560Z,0.00
2023-05-02T03:09:41.650Z,0.00
2023-05-02T03:10:36.819Z,0.00
2023-05-02T03:11:31.883Z,0.00
2023-05-02T03:12:26.851Z,0.00
2023-05-02T03:13:25.590Z,0.00
2023-05-02T03:14:20.691Z,0.00
2023-05-02T03:15:16.333Z,0.00
2023-05-02T03:16:11.369Z,0.00
2023-05-02T03:17:06.437Z,0.00
2023-05-02T03:18:01.536Z,0.00
2023-05-02T03:18:56.602Z,0.00
2023-05-02T03:19:51.646Z,0.00
2023-05-02T03:20:46.897Z,0.00
2023-05-02T03:21:41.820Z,0.00
2023-05-02T03:22:36.869Z,1.00
2023-05-02T03:23:31.880Z,1.00
2023-05-02T03:24:27.119Z,1.00
2023-05-02T03:25:22.163Z,1.00
2023-05-02T03:26:17.244Z,0.00
2023-05-02T03:27:12.311Z,1.00
2023-05-02T03:28:07.334Z,1.00
2023-05-02T03:29:02.364Z,2.00
2023-05-02T03:29:57.534Z,1.00
2023-05-02T03:30:52.681Z,2.00
2023-05-02T03:31:48.047Z,2.00
2023-05-02T03:32:43.093Z,3.00
2023-05-02T03:33:38.271Z,3.00
2023-05-02T03:34:33.342Z,3.00
2023-05-02T03:35:28.683Z,4.00
2023-05-02T03:36:23.698Z,5.00
2023-05-02T03:37:18.901Z,6.00
2023-05-02T03:38:14.031Z,7.00
2023-05-02T03:39:09.212Z,8.00
2023-05-02T03:40:04.419Z,10.00
2023-05-02T03:40:59.542Z,11.00
2023-05-02T03:41:54.495Z,12.00
2023-05-02T03:42:49.603Z,15.00
2023-05-02T03:43:44.551Z,17.00
2023-05-02T03:44:39.711Z,20.00
2023-05-02T03:45:34.642Z,23.00
2023-05-02T03:46:29.772Z,25.00
2023-05-02T03:47:24.787Z,32.00
2023-05-02T03:48:19.809Z,35.00
2023-05-02T03:49:14.797Z,40.00
2023-05-02T03:50:09.900Z,45.00
2023-05-02T03:51:04.940Z,49.00
2023-05-02T03:51:59.958Z,56.00
2023-05-02T03:52:55.051Z,66.00
2023-05-02T03:53:50.125Z,71.00
2023-05-02T03:54:45.173Z,81.00
2023-05-02T03:55:40.492Z,86.00
2023-05-02T03:56:35.475Z,91.00
2023-05-02T03:57:30.510Z,102.00
2023-05-02T03:58:25.521Z,112.00
2023-05-02T03:59:20.584Z,120.00
2023-05-02T04:00:15.626Z,138.00
2023-05-02T04:01:10.796Z,146.00
2023-05-02T04:02:06.010Z,165.00
2023-05-02T04:03:01.774Z,168.00
2023-05-02T04:03:57.041Z,182.00
2023-05-02T04:04:52.730Z,199.00
2023-05-02T04:05:48.091Z,216.00
2023-05-02T04:06:43.403Z,233.00
2023-05-02T04:07:39.017Z,238.00
2023-05-02T04:08:34.379Z,277.00
2023-05-02T04:09:29.715Z,299.00
2023-05-02T04:10:25.924Z,313.00
2023-05-02T04:11:21.419Z,329.00
2023-05-02T04:12:17.060Z,347.00
2023-05-02T04:13:12.267Z,393.00
2023-05-02T04:14:07.553Z,406.00
2023-05-02T04:15:03.334Z,433.00
2023-05-02T04:15:58.696Z,457.00
2023-05-02T04:16:54.808Z,500.00
2023-05-02T04:17:49.758Z,520.00
2023-05-02T04:18:45.094Z,546.00
2023-05-02T04:19:40.923Z,605.00
2023-05-02T04:20:36.243Z,657.00
2023-05-02T04:21:31.769Z,677.00
2023-05-02T04:22:27.788Z,704.00
2023-05-02T04:23:23.171Z,761.00
2023-05-02T04:24:18.935Z,763.00
2023-05-02T04:25:14.278Z,846.00
2023-05-02T04:26:09.911Z,862.00
2023-05-02T04:27:05.489Z,937.00
2023-05-02T04:28:00.652Z,904.00
2023-05-02T04:28:56.579Z,1005.00
2023-05-02T04:29:51.951Z,1055.00
2023-05-02T04:30:47.532Z,1114.00
2023-05-02T04:31:43.196Z,1139.00
2023-05-02T04:32:38.531Z,1159.00
2023-05-02T04:33:33.735Z,1255.00
2023-05-02T04:34:30.112Z,1295.00
2023-05-02T04:35:25.529Z,1325.00
2023-05-02T04:36:21.515Z,1322.00
2023-05-02T04:37:16.606Z,1402.00
2023-05-02T04:38:11.915Z,1494.00
2023-05-02T04:39:07.574Z,1527.00
2023-05-02T04:40:02.975Z,1546.00
2023-05-02T04:40:58.583Z,1600.00
2023-05-02T04:41:53.963Z,1643.00
2023-05-02T04:42:49.243Z,1697.00
2023-05-02T04:43:45.064Z,1766.00
2023-05-02T04:44:40.473Z,1868.00
2023-05-02T04:45:35.725Z,1927.00
2023-05-02T04:46:32.124Z,2048.00
2023-05-02T04:47:27.412Z,2134.00
2023-05-02T04:48:22.714Z,2191.00
2023-05-02T04:49:17.809Z,2185.00
2023-05-02T04:50:12.843Z,2285.00
2023-05-02T04:51:08.062Z,2437.00
2023-05-02T04:52:03.123Z,2619.00
2023-05-02T04:52:58.231Z,2651.00
2023-05-02T04:53:53.296Z,2813.00
2023-05-02T04:54:48.360Z,2940.00
2023-05-02T04:55:43.385Z,3078.00
2023-05-02T04:56:38.636Z,3100.00
2023-05-02T04:57:33.568Z,3209.00
2023-05-02T04:58:28.507Z,3215.00
2023-05-02T04:59:23.587Z,3240.00
2023-05-02T05:00:18.683Z,3280.00
2023-05-02T05:01:13.912Z,3422.00
2023-05-02T05:02:13.076Z,3458.00
2023-05-02T05:03:07.976Z,3544.00
2023-05-02T05:04:03.187Z,3561.00
2023-05-02T05:04:58.150Z,3682.00
2023-05-02T05:05:53.341Z,3672.00
2023-05-02T05:06:48.434Z,3708.00
2023-05-02T05:07:43.329Z,3697.00
2023-05-02T05:08:38.402Z,3678.00
2023-05-02T05:09:33.500Z,3772.00
2023-05-02T05:10:28.516Z,3778.00
2023-05-02T05:11:23.945Z,3723.00
2023-05-02T05:12:19.102Z,3846.00
2023-05-02T05:13:14.603Z,3758.00
2023-05-02T05:14:09.966Z,3785.00
2023-05-02T05:15:05.006Z,3923.00
2023-05-02T05:16:00.307Z,3912.00
2023-05-02T05:16:55.260Z,3893.00
2023-05-02T05:17:50.350Z,3947.00
2023-05-02T05:18:45.329Z,3954.00
2023-05-02T05:19:44.519Z,3915.00
2023-05-02T05:20:39.608Z,3818.00
2023-05-02T05:21:34.801Z,3858.00
2023-05-02T05:22:29.773Z,3795.00
2023-05-02T05:23:24.797Z,3893.00
2023-05-02T05:24:19.903Z,3948.00
2023-05-02T05:25:14.945Z,4033.00
2023-05-02T05:26:10.183Z,4059.00
2023-05-02T05:27:05.088Z,4097.00
2023-05-02T05:28:00.172Z,4182.00
2023-05-02T05:28:55.243Z,4268.00
2023-05-02T05:29:50.366Z,4252.00
2023-05-02T05:30:45.393Z,4274.00
2023-05-02T05:31:40.722Z,4391.00
2023-05-02T05:32:39.048Z,4399.00
2023-05-02T05:33:34.232Z,4463.00
2023-05-02T05:34:29.186Z,4343.00
2023-05-02T05:35:24.398Z,4391.00
2023-05-02T05:36:20.416Z,4365.00
2023-05-02T05:37:14.718Z,4386.00
2023-05-02T05:38:09.602Z,4408.00
2023-05-02T05:39:04.664Z,4473.00
2023-05-02T05:39:59.967Z,4525.00
2023-05-02T05:40:54.826Z,4608.00
2023-05-02T05:41:50.218Z,4602.00
2023-05-02T05:42:45.169Z,4528.00
2023-05-02T05:43:40.215Z,4483.00
2023-05-02T05:44:35.302Z,4507.00
2023-05-02T05:45:30.332Z,4553.00
2023-05-02T05:46:25.785Z,4627.00
2023-05-02T05:47:20.750Z,4755.00
2023-05-02T05:48:16.129Z,4769.00
2023-05-02T05:49:11.482Z,4819.00
2023-05-02T05:50:07.056Z,4868.00
2023-05-02T05:51:02.387Z,4855.00
2023-05-02T05:51:58.056Z,4925.00
2023-05-02T05:52:53.412Z,4985.00
2023-05-02T05:53:48.728Z,5002.00
2023-05-02T05:54:44.085Z,5147.00
2023-05-02T05:55:41.557Z,5241.00
2023-05-02T05:56:35.134Z,5347.00
2023-05-02T05:57:30.353Z,5452.00
2023-05-02T05:58:25.845Z,5604.00
2023-05-02T05:59:20.865Z,5641.00
2023-05-02T06:00:15.966Z,5766.00
2023-05-02T06:01:11.194Z,5758.00
2023-05-02T06:02:06.167Z,5952.00
2023-05-02T06:03:01.360Z,5888.00
2023-05-02T06:03:56.240Z,6102.00
2023-05-02T06:04:51.358Z,6138.00
2023-05-02T06:05:46.459Z,6165.00
2023-05-02T06:06:41.433Z,6341.00
2023-05-02T06:07:36.440Z,6288.00
2023-05-02T06:08:31.511Z,6328.00
2023-05-02T06:09:26.584Z,6477.00
2023-05-02T06:10:21.626Z,6467.00
2023-05-02T06:11:16.725Z,6486.00
2023-05-02T06:12:11.667Z,6525.00
2023-05-02T06:13:06.706Z,6641.00
2023-05-02T06:14:01.797Z,6912.00
2023-05-02T06:14:56.884Z,7149.00
2023-05-02T06:15:51.971Z,6992.00
2023-05-02T06:16:47.475Z,6947.00
2023-05-02T06:17:42.415Z,7095.00
2023-05-02T06:18:37.511Z,7289.00
2023-05-02T06:19:32.550Z,7186.00
2023-05-02T06:20:27.628Z,7458.00
2023-05-02T06:21:22.822Z,7601.00
2023-05-02T06:22:17.737Z,7991.00
2023-05-02T06:23:12.807Z,7975.00
2023-05-02T06:24:07.924Z,8065.00
2023-05-02T06:25:02.938Z,8273.00
2023-05-02T06:25:58.043Z,8282.00
2023-05-02T06:26:53.141Z,8441.00
2023-05-02T06:27:48.250Z,8541.00
2023-05-02T06:28:43.291Z,8777.00
2023-05-02T06:29:38.350Z,8944.00
2023-05-02T06:30:33.396Z,9210.00
2023-05-02T06:31:28.688Z,9314.00
2023-05-02T06:32:23.702Z,9466.00
2023-05-02T06:33:19.077Z,9625.00
2023-05-02T06:34:14.382Z,9711.00
2023-05-02T06:35:09.457Z,9702.00
2023-05-02T06:36:04.532Z,9923.00
2023-05-02T06:36:59.890Z,10538.00
2023-05-02T06:37:58.079Z,10703.00
2023-05-02T06:38:53.230Z,11100.00
2023-05-02T06:39:48.224Z,11173.00
2023-05-02T06:40:43.273Z,11439.00
2023-05-02T06:41:38.459Z,11744.00
2023-05-02T06:42:33.350Z,11902.00
2023-05-02T06:43:28.419Z,12009.00
2023-05-02T06:44:23.464Z,12045.00
2023-05-02T06:45:18.615Z,12162.00
2023-05-02T06:46:13.905Z,12005.00
2023-05-02T06:47:08.707Z,12085.00
2023-05-02T06:48:03.760Z,12200.00
2023-05-02T06:48:58.751Z,12338.00
2023-05-02T06:49:54.516Z,12661.00
2023-05-02T06:50:49.850Z,12885.00
2023-05-02T06:51:45.312Z,12810.00
2023-05-02T06:52:40.563Z,12937.00
2023-05-02T06:53:36.104Z,13434.00
2023-05-02T06:54:31.580Z,13561.00
2023-05-02T06:55:27.018Z,13897.00
2023-05-02T06:56:22.593Z,14575.00
2023-05-02T06:57:17.916Z,15319.00
2023-05-02T06:58:13.362Z,15820.00
2023-05-02T06:59:09.058Z,15929.00
2023-05-02T07:00:04.459Z,15695.00
2023-05-02T07:01:03.820Z,15088.00
2023-05-02T07:01:59.121Z,15092.00
2023-05-02T07:02:54.546Z,14584.00
2023-05-02T07:03:49.928Z,15073.00
2023-05-02T07:04:45.494Z,15206.00
2023-05-02T07:05:40.875Z,15402.00
2023-05-02T07:06:36.332Z,14787.00
2023-05-02T07:07:31.902Z,13984.00
2023-05-02T07:08:27.145Z,12797.00
2023-05-02T07:09:22.579Z,12567.00
2023-05-02T07:10:18.038Z,12441.00
2023-05-02T07:11:13.399Z,12514.00
2023-05-02T07:12:08.974Z,12902.00
2023-05-02T07:13:04.147Z,12851.00
2023-05-02T07:13:59.810Z,12544.00
2023-05-02T07:14:54.897Z,11793.00
2023-05-02T07:15:50.005Z,11190.00
2023-05-02T07:16:45.111Z,10338.00
2023-05-02T07:17:40.278Z,10058.00
2023-05-02T07:18:35.189Z,9636.00
2023-05-02T07:19:30.271Z,9727.00
2023-05-02T07:20:25.362Z,9388.00
2023-05-02T07:21:20.455Z,9386.00
2023-05-02T07:22:15.685Z,9780.00
2023-05-02T07:23:10.523Z,10037.00
2023-05-02T07:24:07.790Z,10500.00
2023-05-02T07:25:03.042Z,10971.00
2023-05-02T07:25:58.021Z,11457.00
2023-05-02T07:26:53.315Z,11162.00
2023-05-02T07:27:48.149Z,10899.00
2023-05-02T07:28:43.319Z,10216.00
2023-05-02T07:29:38.376Z,8990.00
2023-05-02T07:30:33.487Z,8209.00
2023-05-02T07:31:28.567Z,7912.00
2023-05-02T07:32:23.885Z,7079.00
2023-05-02T07:33:19.569Z,6449.00
2023-05-02T07:34:15.037Z,5909.00
2023-05-02T07:35:10.756Z,5728.00
2023-05-02T07:36:06.246Z,5504.00
2023-05-02T07:37:01.778Z,5180.00
2023-05-02T07:37:57.362Z,4850.00
2023-05-02T07:38:52.677Z,4379.00
2023-05-02T07:39:48.444Z,4122.00
2023-05-02T07:40:43.748Z,4299.00
2023-05-02T07:41:39.461Z,4308.00
2023-05-02T07:42:34.775Z,4361.00
2023-05-02T07:43:30.149Z,4511.00
2023-05-02T07:44:25.470Z,5247.00
2023-05-02T07:45:21.775Z,6575.00
2023-05-02T07:46:17.290Z,7722.00
2023-05-02T07:47:13.189Z,8118.00
2023-05-02T07:48:08.445Z,8802.00
2023-05-02T07:49:03.889Z,9778.00
2023-05-02T07:51:25.186Z,10801.00
2023-05-02T07:52:18.912Z,11128.00
2023-05-02T07:53:14.985Z,10915.00
2023-05-02T07:54:09.723Z,11025.00
2023-05-02T07:55:05.267Z,11055.00
2023-05-02T07:56:00.757Z,11035.00
2023-05-02T07:56:56.478Z,11098.00
2023-05-02T07:57:51.672Z,11110.00
2023-05-02T07:58:47.213Z,11505.00
2023-05-02T07:59:42.579Z,11501.00
2023-05-02T08:00:38.203Z,11734.00
2023-05-02T08:01:33.620Z,11736.00
2023-05-02T08:02:29.086Z,11684.00
2023-05-02T08:03:24.743Z,11466.00
2023-05-02T08:04:20.210Z,11408.00
2023-05-02T08:05:15.610Z,10810.00
2023-05-02T08:06:11.157Z,10461.00
2023-05-02T08:07:06.676Z,10555.00
2023-05-02T08:08:01.971Z,10927.00
2023-05-02T08:08:57.359Z,10935.00
2023-05-02T08:09:52.876Z,11151.00
2023-05-02T08:10:48.399Z,11351.00
2023-05-02T08:11:44.078Z,11553.00
2023-05-02T08:12:39.323Z,11791.00
2023-05-02T08:13:34.741Z,12124.00
2023-05-02T08:14:30.113Z,12503.00
2023-05-02T08:15:25.642Z,12941.00
2023-05-02T08:16:21.179Z,13175.00
2023-05-02T08:17:16.445Z,13399.00
2023-05-02T08:18:12.175Z,13620.00
2023-05-02T08:19:07.564Z,13808.00
2023-05-02T08:20:03.098Z,13831.00
2023-05-02T08:20:58.644Z,13876.00
2023-05-02T08:21:53.872Z,13989.00
2023-05-02T08:22:49.413Z,14044.00
2023-05-02T08:23:44.797Z,14380.00
2023-05-02T08:24:40.487Z,14504.00
2023-05-02T08:25:35.933Z,14961.00
2023-05-02T08:26:31.545Z,15339.00
2023-05-02T08:27:26.763Z,15652.00
2023-05-02T08:28:22.305Z,16020.00
2023-05-02T08:29:17.672Z,16369.00
2023-05-02T08:30:13.327Z,16920.00
2023-05-02T08:31:08.776Z,17240.00
2023-05-02T08:32:04.218Z,16984.00
2023-05-02T08:32:59.754Z,16416.00
2023-05-02T08:33:55.151Z,16712.00
2023-05-02T08:34:50.536Z,15901.00
2023-05-02T08:35:46.285Z,15702.00
2023-05-02T08:36:41.699Z,15639.00
2023-05-02T08:37:36.973Z,15679.00
2023-05-02T08:38:32.400Z,15821.00
2023-05-02T08:39:28.038Z,16091.00
2023-05-02T08:40:34.001Z,16400.00
2023-05-02T08:41:20.106Z,16600.00
2023-05-02T08:42:14.398Z,16131.00
2023-05-02T08:43:09.916Z,15691.00
2023-05-02T08:44:05.250Z,15080.00
2023-05-02T08:45:00.653Z,14332.00
2023-05-02T08:45:56.156Z,13913.00
2023-05-02T08:46:51.547Z,13789.00
2023-05-02T08:47:47.095Z,13706.00
2023-05-02T08:48:42.469Z,13856.00
2023-05-02T08:49:37.810Z,14362.00
2023-05-02T08:50:33.243Z,14778.00
2023-05-02T08:51:28.814Z,15571.00
2023-05-02T08:52:24.241Z,16209.00
2023-05-02T08:53:19.621Z,17056.00
2023-05-02T08:54:15.053Z,17376.00
2023-05-02T08:55:10.548Z,17376.00
2023-05-02T08:56:06.149Z,16864.00
2023-05-02T08:57:01.361Z,17120.00
2023-05-02T08:57:56.767Z,17784.00
2023-05-02T08:58:52.161Z,18248.00
2023-05-02T08:59:47.549Z,17832.00
2023-05-02T09:00:43.153Z,17968.00
2023-05-02T09:01:38.713Z,17576.00
2023-05-02T09:02:34.068Z,17448.00
2023-05-02T09:03:29.497Z,17040.00
2023-05-02T09:04:25.064Z,17856.00
2023-05-02T09:05:20.390Z,18056.00
2023-05-02T09:06:15.967Z,19040.00
2023-05-02T09:07:11.446Z,19888.00
2023-05-02T09:08:06.996Z,20216.00
2023-05-02T09:09:02.232Z,20480.00
2023-05-02T09:09:57.843Z,20656.00
2023-05-02T09:10:53.369Z,20048.00
2023-05-02T09:11:48.905Z,19896.00
2023-05-02T09:12:44.162Z,20312.00
2023-05-02T09:13:39.539Z,20552.00
2023-05-02T09:14:34.926Z,20840.00
2023-05-02T09:15:30.493Z,21104.00
2023-05-02T09:16:26.256Z,21544.00
2023-05-02T09:17:21.549Z,21344.00
2023-05-02T09:18:16.901Z,20672.00
2023-05-02T09:19:12.562Z,20344.00
2023-05-02T09:20:07.945Z,20864.00
2023-05-02T09:21:03.603Z,21216.00
2023-05-02T09:21:58.951Z,20856.00
2023-05-02T09:22:54.420Z,21520.00
2023-05-02T09:23:49.836Z,21512.00
2023-05-02T09:24:45.564Z,23072.00
2023-05-02T09:25:40.991Z,22784.00
2023-05-02T09:26:36.621Z,24208.00
2023-05-02T09:27:32.016Z,25520.00
2023-05-02T09:28:27.540Z,24080.00
2023-05-02T09:29:22.944Z,22360.00
2023-05-02T09:30:18.383Z,20456.00
2023-05-02T09:31:15.215Z,19280.00
2023-05-02T09:32:09.317Z,17864.00
2023-05-02T09:33:04.630Z,18032.00
2023-05-02T09:34:00.247Z,20856.00
2023-05-02T09:34:55.624Z,22528.00
2023-05-02T09:35:51.105Z,25408.00
2023-05-02T09:36:46.732Z,27976.00
2023-05-02T09:37:42.033Z,28456.00
2023-05-02T09:38:37.613Z,53696.00
2023-05-02T09:39:33.192Z,65535.00
2023-05-02T09:40:28.567Z,65535.00
2023-05-02T09:41:24.226Z,62144.00
2023-05-02T09:42:19.473Z,63792.00
2023-05-02T09:43:15.208Z,65535.00
2023-05-02T09:44:10.669Z,65535.00
2023-05-02T09:45:06.094Z,65535.00
2023-05-02T09:46:01.691Z,65535.00
2023-05-02T09:46:57.205Z,65535.00
2023-05-02T09:47:52.744Z,65535.00
2023-05-02T09:48:47.978Z,38016.00
2023-05-02T09:49:43.423Z,28024.00
2023-05-02T09:50:38.883Z,26336.00
2023-05-02T09:51:34.507Z,28728.00
2023-05-02T09:52:29.957Z,30600.00
2023-05-02T09:53:25.377Z,27968.00
2023-05-02T09:54:20.833Z,28536.00
2023-05-02T09:55:16.217Z,26824.00
2023-05-02T09:56:11.831Z,26536.00
2023-05-02T09:57:07.660Z,23576.00
2023-05-02T09:58:02.818Z,21816.00
2023-05-02T09:58:58.201Z,21040.00
2023-05-02T09:59:53.634Z,20256.00
2023-05-02T10:00:48.994Z,20272.00
2023-05-02T10:01:44.693Z,20840.00
2023-05-02T10:02:40.129Z,21720.00
2023-05-02T10:03:35.678Z,22656.00
2023-05-02T10:04:31.374Z,23120.00
2023-05-02T10:05:26.699Z,22808.00
2023-05-02T10:06:22.160Z,23136.00
2023-05-02T10:07:17.733Z,21224.00
2023-05-02T10:08:13.024Z,21200.00
2023-05-02T10:09:08.622Z,22112.00
2023-05-02T10:10:04.079Z,23328.00
2023-05-02T10:10:59.657Z,23312.00
2023-05-02T10:11:55.206Z,21352.00
2023-05-02T10:12:50.642Z,20272.00
2023-05-02T10:13:46.003Z,17416.00
2023-05-02T10:14:41.812Z,15442.00
2023-05-02T10:15:37.127Z,15846.00
2023-05-02T10:16:32.728Z,16768.00
2023-05-02T10:17:28.369Z,19344.00
2023-05-02T10:18:23.619Z,19928.00
2023-05-02T10:19:18.965Z,17912.00
2023-05-02T10:20:14.348Z,17952.00
2023-05-02T10:21:09.749Z,16792.00
2023-05-02T10:22:05.132Z,17152.00
2023-05-02T10:23:00.487Z,17808.00
2023-05-02T10:23:55.886Z,20136.00
2023-05-02T10:24:51.246Z,22384.00
2023-05-02T10:25:46.888Z,25992.00
2023-05-02T10:26:42.348Z,26592.00
2023-05-02T10:27:37.651Z,26760.00
2023-05-02T10:28:33.091Z,24808.00
2023-05-02T10:29:28.647Z,21480.00
2023-05-02T10:30:24.163Z,19904.00
2023-05-02T10:31:19.790Z,21312.00
2023-05-02T10:32:15.028Z,25824.00
2023-05-02T10:33:10.648Z,44776.00
2023-05-02T10:34:06.100Z,29232.00
2023-05-02T10:35:01.926Z,27456.00
2023-05-02T10:35:57.121Z,28648.00
2023-05-02T10:36:52.761Z,26248.00
2023-05-02T10:37:48.157Z,25624.00
2023-05-02T10:38:43.716Z,25096.00
2023-05-02T10:39:39.241Z,21912.00
2023-05-02T10:40:34.773Z,23536.00
2023-05-02T10:41:30.370Z,36504.00
2023-05-02T10:42:25.696Z,51776.00
2023-05-02T10:43:21.104Z,57744.00
2023-05-02T10:44:16.570Z,52464.00
2023-05-02T10:45:12.030Z,37360.00
2023-05-02T10:46:07.470Z,61560.00
2023-05-02T10:47:03.304Z,56128.00
2023-05-02T10:47:58.404Z,65535.00
2023-05-02T10:48:53.833Z,65535.00
2023-05-02T10:49:49.312Z,65535.00
2023-05-02T10:50:44.699Z,65535.00
2023-05-02T10:51:40.586Z,65535.00
2023-05-02T10:52:35.928Z,63416.00
2023-05-02T10:53:31.344Z,52944.00
2023-05-02T10:54:26.769Z,56736.00
2023-05-02T10:55:22.216Z,64304.00
2023-05-02T10:56:17.636Z,60856.00
2023-05-02T10:57:13.274Z,62984.00
2023-05-02T10:58:08.683Z,62992.00
2023-05-02T10:59:04.239Z,65535.00
2023-05-02T10:59:59.624Z,57984.00
2023-05-02T11:00:55.122Z,48864.00
2023-05-02T11:01:50.556Z,45448.00
2023-05-02T11:02:46.395Z,41416.00
2023-05-02T11:03:41.501Z,42960.00
2023-05-02T11:04:36.941Z,40464.00
2023-05-02T11:05:32.381Z,26624.00
2023-05-02T11:06:27.985Z,18408.00
2023-05-02T11:07:23.529Z,15605.00
2023-05-02T11:08:21.358Z,14347.00
2023-05-02T11:09:14.185Z,14940.00
2023-05-02T11:10:09.863Z,16403.00
2023-05-02T11:11:05.345Z,17952.00
2023-05-02T11:12:00.885Z,19552.00
2023-05-02T11:12:56.474Z,20704.00
2023-05-02T11:13:51.737Z,22208.00
2023-05-02T11:14:47.149Z,25176.00
2023-05-02T11:15:42.628Z,50696.00
2023-05-02T11:16:38.128Z,61352.00
2023-05-02T11:17:33.754Z,65535.00
2023-05-02T11:18:29.136Z,65535.00
2023-05-02T11:19:24.720Z,28024.00
2023-05-02T11:20:20.126Z,26368.00
2023-05-02T11:21:15.581Z,65535.00
2023-05-02T11:22:10.968Z,55864.00
2023-05-02T11:23:06.786Z,65535.00
2023-05-02T11:24:02.085Z,43256.00
2023-05-02T11:24:57.580Z,45184.00